Portada
METAR-TAF:

METAR-TAF

Aeroports :

Monbetsu, Japó

latitud: 44-15N, longitud: 143-32E, altitud: 6 m

Observació

L'informe es va fer fa 3 hores i 44 minuts, a les 07:00 UTC
Vent 10 kt del Est/Nord-Est
Temperatura 17°C
Humitat 52%
Pressió 1004 hPa
Visibilitat 10 km o més
Núvols disperses a una alçada de 5000 ft

METAR: RJEB 230700Z 07010KT 9999 SCT050 17/07 Q1004

Hora: 19:44 (10:44 UTC)


TAF: manca

Observacions i pronòstics meteorològics de més de 4000 aeroports (METAR i TAF).

Les estacions disponibles són els punts grocs i vermells al mapa.

Posi el ratolí al punt desitjat per veure el nom de l'estació.

Feu clic per veure les observacions i els pronòstics meteorològics.

Per canviar el mapa: feu clic els botons verds amb una creu de color negre per apropar; al botó verd amb un guió per allunyar la imatge; o en les fletxes verdes per a mapes adjacents.


METAR-TAF: